• Join FlightAware (Why Join?)
  • Login
  • US Flag 
11:10PM EDT


 

Airport Tracker/Info


-or-


 

Live Flight TrackerFlight Track Log ✈ UAL5900 ✈ 16-Apr-2013 ✈ KORD - KBNA

Flight Track Log - Related Links

Times and Time Zones

All times are in EDT time to prevent confusion due to time zone crossing. See the UAL5900 flight status page for this flight to view local times or setup timezone preferences in your user account.

Time Position Orientation Groundspeed Altitude Reporting Facility
EDT Latitude Longitude Course Direction KTS MPH feet Rate Location/Type
06:51PM 41.9833 -87.8667 176° South 166 191 2,400  Level Chicago TRACON
06:52PM 41.9333 -87.8000 135° Southeast 225 259 4,500 1,260 Climbing Chicago TRACON
06:53PM 41.8667 -87.7667 160° South 269 310 5,100 1,560 Climbing Chicago TRACON
06:55PM 41.7269 -87.7592 178° South 257 296 9,300 1,800 Climbing Chicago Center
06:56PM 41.5029 -87.7981 176° South  Level Estimated
06:56PM 41.6522 -87.7419 170° South 269 310 10,700  Level Chicago Center
06:57PM 41.5533 -87.7219 171° South 296 341 13,100 1,980 Climbing Chicago Center
06:58PM 41.4728 -87.7247 181° South 289 333 14,900 1,440 Climbing Chicago Center
06:59PM 41.3900 -87.7256 180° South 294 338 16,100 1,140 Climbing Chicago Center
07:00PM 41.2992 -87.7261 180° South 319 367 17,300 1,140 Climbing Chicago Center
07:01PM 41.2075 -87.7275 181° South 328 377 18,500 1,080 Climbing Chicago Center
07:02PM 41.1147 -87.7275 180° South 331 381 19,600 1,020 Climbing Chicago Center
07:03PM 41.0172 -87.7294 181° South 347 399 20,700 1,080 Climbing Chicago Center
07:04PM 40.8947 -87.7314 181° South 365 420 21,900 1,020 Climbing Chicago Center
07:05PM 40.7928 -87.7450 186° South 370 426 22,900 960 Climbing Chicago Center
07:06PM 40.6900 -87.7436 179° South 375 432 24,000 1,020 Climbing Chicago Center
07:07PM 40.5825 -87.7169 169° South 394 453 25,000 960 Climbing Chicago Center
07:08PM 40.4775 -87.6836 166° South 392 451 26,000 960 Climbing Chicago Center
07:09PM 40.3714 -87.6503 167° South 394 453 27,000 1,080 Climbing Chicago Center
07:09PM 40.3358 -87.6394 167° South 390 449 27,400 1,140 Climbing Indianapolis Center
07:10PM 40.2458 -87.6103 166° South 390 449 28,200 960 Climbing Chicago Center
07:11PM 40.1394 -87.5975 175° South 385 443 29,200 900 Climbing Chicago Center
07:11PM 40.1247 -87.5964 177° South 379 436 29,400 900 Climbing Indianapolis Center
07:12PM 40.0178 -87.5817 174° South 383 441 30,400 1,080 Climbing Indianapolis Center
07:13PM 39.8908 -87.5664 175° South 380 437 31,700 1,080 Climbing Indianapolis Center
07:14PM 39.7833 -87.5522 174° South 384 442 32,700 960 Climbing Indianapolis Center
07:16PM 39.6747 -87.5394 175° South 388 447 33,700 960 Climbing Indianapolis Center
07:17PM 39.5675 -87.5253 174° South 387 445 34,700 600 Climbing Indianapolis Center
07:18PM 39.4600 -87.5117 174° South 387 445 35,000 120 Climbing Indianapolis Center
07:19PM 39.3486 -87.4983 175° South 399 459 35,000 -420 Level Indianapolis Center
07:20PM 39.2372 -87.4844 174° South 400 460 34,200 -900 Descending Indianapolis Center
07:21PM 39.1239 -87.4694 174° South 408 470 33,200 -600 Descending Indianapolis Center
07:22PM 39.0108 -87.4564 175° South 406 467 33,000 -120 Descending Indianapolis Center
07:23PM 38.9019 -87.4419 174° South 393 452 33,000  Level Indianapolis Center
07:24PM 38.7736 -87.4267 175° South 386 444 33,000  Level Indianapolis Center
07:25PM 38.6667 -87.4139 175° South 385 443 33,000  Level Indianapolis Center
07:26PM 38.5586 -87.3956 172° South 391 450 33,000  Level Indianapolis Center
07:27PM 38.4569 -87.3264 152° Southeast 410 472 33,000  Level Indianapolis Center
07:28PM 38.3542 -87.2569 152° Southeast 420 483 33,000 -540 Level Indianapolis Center
07:29PM 38.2503 -87.1872 152° Southeast 428 493 31,900 -1,380 Descending Indianapolis Center
07:30PM 38.1208 -87.1125 156° South 436 502 30,200 -1,680 Descending Indianapolis Center
07:31PM 38.0056 -87.0864 170° South 416 479 28,600 -1,560 Descending Indianapolis Center
07:32PM 37.8981 -87.0614 170° South 405 466 27,100 -1,560 Descending Indianapolis Center
07:33PM 37.7864 -87.0367 170° South 406 467 25,500 -1,560 Descending Indianapolis Center
07:34PM 37.6733 -87.0119 170° South 409 471 24,000 -1,440 Descending Indianapolis Center
07:35PM 37.5694 -86.9950 173° South 411 473 22,900 -1,200 Descending Memphis Center
07:36PM 37.4639 -87.0100 186° South 393 452 21,800 -1,200 Descending Memphis Center
07:37PM 37.3619 -87.0219 185° South 383 441 20,500 -1,320 Descending Memphis Center
07:38PM 37.2686 -87.0364 187° South 378 435 19,200 -1,440 Descending Memphis Center
07:39PM 37.1692 -87.0511 187° South 372 428 17,700 -1,500 Descending Memphis Center
07:40PM 37.0736 -87.0628 186° South 359 413 16,200 -1,740 Descending Memphis Center
07:40PM 36.9989 -87.0764 188° South 357 411 14,900 -1,800 Descending Memphis Center
07:41PM 36.9739 -87.0772 182° South 359 413 14,400 -1,500 Descending Memphis Center
07:42PM 36.8783 -87.0917 187° South 359 413 12,900 -1,560 Descending Memphis Center
07:43PM 36.7864 -87.0797 174° South 344 396 11,300 -1,440 Descending Memphis Center
07:44PM 36.7103 -87.0336 154° Southeast 315 362 10,100 -1,200 Descending Memphis Center
07:45PM 36.6339 -86.9853 153° Southeast 287 330 8,900 -1,380 Descending Memphis Center
07:46PM 36.5700 -86.9361 148° Southeast 275 316 7,400 -1,500 Descending Memphis Center
07:47PM 36.5103 -86.8869 147° Southeast 262 302 5,900 -1,560 Descending Memphis Center
07:48PM 36.4506 -86.8406 148° Southeast 256 295 4,300 -1,500 Descending Memphis Center
07:49PM 36.3950 -86.7967 148° Southeast 251 289 3,000 -720 Descending Memphis Center
07:50PM 36.3461 -86.7628 151° Southeast 241 277 2,900 -300 Descending Memphis Center
07:51PM 36.2972 -86.7236 147° Southeast 223 257 2,400 -300 Descending Memphis Center
07:52PM 36.2586 -86.6919 147° Southeast 185 213 2,400 -300 Level Memphis Center
07:53PM 36.2203 -86.6628 148° Southeast 169 194 1,900 -540 Descending Memphis Center
07:54PM 36.1744 -86.6622 179° South 151 174 1,400 -600 Descending Memphis Center
07:55PM 36.1414 -86.6767 199° South 134 154 700 -360 Descending Memphis Center
07:56PM 36.1081 -86.6781 182° South 134 154 700  Level Memphis Center
07:58PM 36.1167 -86.6667 North  Level FlightAware Approximate
08:05PM 36.1245 -86.6782 North  Level Estimated
08:06PM 36.1245 -86.6782 North  Level Estimated
08:07PM 36.1245 -86.6782 North  Level Estimated
08:08PM 36.1245 -86.6782 North  Level Estimated
08:09PM 36.1245 -86.6782 North  Level Estimated
08:10PM 36.1245 -86.6782 North  Level Estimated
08:11PM 36.1245 -86.6782 North  Level Estimated
08:12PM 36.1245 -86.6782 North  Level Estimated